Time;durP1;ratioP1;P1;durP2;ratioP2;P2;SDS_P1;SDS_P2;PMS_P1;PMS_P2;Temp;Humidity;BMP_temperature;BMP_pressure;BME280_temperature;BME280_humidity;BME280_pressure;Samples;Min_cycle;Max_cycle;Signal;HPM_P1;HPM_P2
2021/01/11 00:00:01;;;;;;;22.75;7.88;;;;;;;;;;6241923;22;20242;-85
2021/01/11 00:03:05;;;;;;;10.90;6.60;;;;;;;;;;6256401;23;20008;-85
2021/01/11 00:05:45;;;;;;;13.27;7.20;;;4.80;99.90;;;;;;6240542;23;20020;-85
2021/01/11 00:08:21;;;;;;;21.17;9.73;;;;;;;;;;6212622;23;20008;-85
2021/01/11 00:11:02;;;;;;;18.83;9.02;;;;;;;;;;6252564;22;20526;-85
2021/01/11 00:13:33;;;;;;;17.33;7.93;;;;;;;;;;6271572;22;20030;-85
2021/01/11 00:16:12;;;;;;;21.13;9.77;;;;;;;;;;6259403;22;20032;-85
2021/01/11 00:19:09;;;;;;;;;;;4.80;99.90;;;;;;6218930;23;20020;-84
2021/01/11 00:21:42;;;;;;;18.02;8.95;;;;;;;;;;6261587;23;19911;-86
2021/01/11 00:24:43;;;;;;;19.80;8.75;;;4.40;99.90;;;;;;6263086;22;20020;-86
2021/01/11 00:27:17;;;;;;;21.15;9.85;;;4.60;99.90;;;;;;6236804;23;20020;-86
2021/01/11 00:29:47;;;;;;;17.02;8.90;;;;;;;;;;6225107;22;20023;-86
2021/01/11 00:32:32;;;;;;;19.20;9.32;;;;;;;;;;6280656;22;20024;-86
2021/01/11 00:35:09;;;;;;;22.27;8.75;;;;;;;;;;6259349;23;20016;-85
2021/01/11 00:37:51;;;;;;;17.80;7.85;;;;;;;;;;6236970;23;20028;-87
2021/01/11 00:40:35;;;;;;;25.38;10.75;;;;;;;;;;6261513;23;20030;-86
2021/01/11 00:43:21;;;;;;;24.08;10.38;;;;;;;;;;6260741;22;20016;-85
2021/01/11 00:45:52;;;;;;;18.33;9.32;;;;;;;;;;6263094;23;20030;-86
2021/01/11 00:48:37;;;;;;;27.08;10.10;;;;;;;;;;6237067;23;20016;-85
2021/01/11 00:51:14;;;;;;;20.67;10.43;;;;;;;;;;6213016;23;20034;31
2021/01/11 00:53:55;;;;;;;24.85;11.88;;;4.80;99.90;;;;;;6203590;23;20029;-86
2021/01/11 00:56:47;;;;;;;22.63;10.15;;;;;;;;;;6237339;22;20030;-87
2021/01/11 01:00:21;;;;;;;19.98;10.38;;;4.90;99.90;;;;;;6290900;22;20063;-86
2021/01/11 01:03:02;;;;;;;21.38;12.20;;;;;;;;;;6271280;22;20022;-85
2021/01/11 01:05:35;;;;;;;24.27;11.77;;;4.80;99.90;;;;;;6238013;22;20024;-85
2021/01/11 01:08:13;;;;;;;23.27;10.32;;;;;;;;;;6239649;23;20442;-84
2021/01/11 01:10:50;;;;;;;23.17;9.90;;;4.80;99.90;;;;;;6216241;23;20019;-86
2021/01/11 01:13:25;;;;;;;25.67;11.93;;;;;;;;;;6215446;23;20024;-86
2021/01/11 01:15:59;;;;;;;22.83;12.32;;;;;;;;;;6238686;23;20020;-86
2021/01/11 01:18:50;;;;;;;22.35;10.55;;;;;;;;;;6273576;22;20029;-86
2021/01/11 01:21:26;;;;;;;23.77;12.85;;;;;;;;;;6250253;23;20042;-87
2021/01/11 01:23:55;;;;;;;24.95;10.90;;;;;;;;;;6234792;23;20052;-86
2021/01/11 01:26:25;;;;;;;27.42;10.75;;;4.80;99.90;;;;;;6214291;23;20016;-86
2021/01/11 01:29:00;;;;;;;15.15;8.05;;;;;;;;;;6216449;23;20020;-86
2021/01/11 01:31:32;;;;;;;30.60;13.20;;;;;;;;;;6216723;23;20016;-86
2021/01/11 01:34:04;;;;;;;25.48;12.30;;;;;;;;;;6214195;23;20021;-86
2021/01/11 01:36:35;;;;;;;26.67;12.80;;;;;;;;;;6210668;22;20011;-85
2021/01/11 01:39:10;;;;;;;27.20;14.48;;;;;;;;;;6279416;22;20033;-86
2021/01/11 01:41:39;;;;;;;28.02;12.60;;;;;;;;;;6301467;22;20012;-85
2021/01/11 01:44:23;;;;;;;35.70;14.18;;;;;;;;;;6301204;22;20023;-85
2021/01/11 01:47:01;;;;;;;28.67;13.32;;;;;;;;;;6329040;22;20075;-86
2021/01/11 01:49:36;;;;;;;25.30;11.25;;;;;;;;;;6282270;22;20019;-87
2021/01/11 01:52:07;;;;;;;32.28;14.80;;;5.00;99.90;;;;;;6247848;22;20018;-85
2021/01/11 01:54:55;;;;;;;25.52;11.02;;;;;;;;;;6247315;22;20028;-85
2021/01/11 01:57:41;;;;;;;24.60;12.32;;;;;;;;;;6270734;22;20012;-85
2021/01/11 02:00:11;;;;;;;28.92;14.02;;;4.90;99.90;;;;;;6244416;22;20018;-85
2021/01/11 02:02:59;;;;;;;27.98;13.15;;;;;;;;;;6254626;22;20019;-85
2021/01/11 02:05:31;;;;;;;29.92;14.73;;;;;;;;;;6295500;22;20332;-85
2021/01/11 02:08:37;;;;;;;28.08;13.25;;;5.20;99.90;;;;;;6269601;22;20027;-87
2021/01/11 02:12:07;;;;;;;25.60;13.18;;;5.10;99.90;;;;;;6295691;22;20460;-86
2021/01/11 02:15:05;;;;;;;28.25;13.57;;;5.10;99.90;;;;;;6071583;23;20478;-85
2021/01/11 02:17:48;;;;;;;29.85;13.73;;;5.10;99.90;;;;;;6086096;22;20035;-86
2021/01/11 02:21:01;;;;;;;33.63;14.63;;;5.10;99.90;;;;;;6220146;22;20023;-86
2021/01/11 02:23:40;;;;;;;35.65;14.77;;;;;;;;;;6203593;22;20033;-86
2021/01/11 02:26:44;;;;;;;36.47;14.55;;;5.20;99.90;;;;;;6216864;22;20020;-87
2021/01/11 02:29:42;;;;;;;29.85;14.70;;;5.00;99.90;;;;;;6250926;22;20016;-87
2021/01/11 02:32:17;;;;;;;32.17;16.88;;;5.30;99.90;;;;;;6234683;23;20038;-88
2021/01/11 02:35:11;;;;;;;28.42;14.32;;;5.20;99.90;;;;;;6228596;22;20029;-87
2021/01/11 02:37:57;;;;;;;33.72;16.38;;;5.10;99.90;;;;;;6240836;22;20022;-86
2021/01/11 02:40:34;;;;;;;32.10;14.70;;;;;;;;;;6242125;22;20039;-88
2021/01/11 02:43:07;;;;;;;27.73;12.98;;;;;;;;;;6242780;22;20012;-87
2021/01/11 02:45:39;;;;;;;24.35;12.90;;;5.00;99.90;;;;;;6241028;22;20026;-86
2021/01/11 02:48:28;;;;;;;30.23;16.48;;;;;;;;;;6287771;22;20011;-85
2021/01/11 02:51:50;;;;;;;27.75;15.00;;;5.20;99.90;;;;;;6238164;22;20020;-87
2021/01/11 02:54:46;;;;;;;26.27;12.95;;;5.20;99.90;;;;;;6278345;22;20034;-86
2021/01/11 02:57:16;;;;;;;27.92;13.85;;;5.20;99.90;;;;;;6241695;22;20024;-86
2021/01/11 02:59:58;;;;;;;28.52;13.32;;;5.10;99.90;;;;;;6216592;22;20022;-86
2021/01/11 03:02:42;;;;;;;32.78;15.50;;;5.00;99.90;;;;;;6264743;22;20045;-86
2021/01/11 03:05:15;;;;;;;24.63;11.95;;;5.20;99.90;;;;;;6265251;22;20022;-86
2021/01/11 03:08:14;;;;;;;28.50;16.20;;;5.20;99.90;;;;;;6239956;22;20026;-85
2021/01/11 03:10:45;;;;;;;24.60;13.05;;;;;;;;;;6214969;22;20007;-85
2021/01/11 03:13:21;;;;;;;26.67;13.07;;;;;;;;;;6266695;22;20027;-88
2021/01/11 03:15:53;;;;;;;31.23;15.00;;;;;;;;;;6260971;22;20038;-86
2021/01/11 03:18:25;;;;;;;28.45;12.93;;;;;;;;;;6245094;22;20464;-85
2021/01/11 03:21:00;;;;;;;22.73;11.48;;;;;;;;;;6220365;22;20034;-85
2021/01/11 03:23:37;;;;;;;28.38;13.80;;;5.10;99.90;;;;;;6293675;22;20020;-87
2021/01/11 03:26:07;;;;;;;30.13;13.13;;;;;;;;;;6243154;22;20022;-85
2021/01/11 03:28:37;;;;;;;30.35;13.45;;;;;;;;;;6294336;22;20020;-87
2021/01/11 03:31:14;;;;;;;27.80;11.82;;;;;;;;;;6270219;22;20031;-86
2021/01/11 03:33:57;;;;;;;26.77;13.02;;;;;;;;;;6263506;22;20016;-85
2021/01/11 03:36:31;;;;;;;25.73;11.23;;;;;;;;;;6265780;22;20024;-86
2021/01/11 03:39:07;;;;;;;24.05;10.93;;;5.10;99.90;;;;;;6232986;23;20030;-85
2021/01/11 03:41:38;;;;;;;28.33;14.32;;;5.10;99.90;;;;;;6209449;23;20016;-85
2021/01/11 03:44:15;;;;;;;27.75;15.73;;;;;;;;;;6209867;23;20020;-86
2021/01/11 03:47:05;;;;;;;28.00;12.27;;;5.10;99.90;;;;;;6233601;23;20020;-84
2021/01/11 03:49:36;;;;;;;25.38;12.25;;;;;;;;;;6182309;23;20027;-86
2021/01/11 03:52:16;;;;;;;18.58;11.30;;;;;;;;;;6231419;23;20329;-86
2021/01/11 03:54:53;;;;;;;29.65;12.02;;;;;;;;;;6228238;22;20012;-86
2021/01/11 03:57:24;;;;;;;25.15;11.05;;;;;;;;;;6262070;23;20455;-86
2021/01/11 03:59:53;;;;;;;25.05;10.35;;;;;;;;;;6232866;23;20020;-87
2021/01/11 04:02:21;;;;;;;21.05;12.05;;;;;;;;;;6225083;22;20030;-86
2021/01/11 04:04:51;;;;;;;22.08;10.15;;;;;;;;;;6232795;23;20492;-85
2021/01/11 04:07:20;;;;;;;25.88;12.27;;;;;;;;;;6263472;23;20016;-85
2021/01/11 04:09:53;;;;;;;23.10;10.45;;;;;;;;;;6256548;22;20024;-86
2021/01/11 04:12:21;;;;;;;21.40;10.93;;;;;;;;;;6185891;22;20020;-85
2021/01/11 04:14:57;;;;;;;24.67;12.43;;;;;;;;;;6257997;23;20020;-85
2021/01/11 04:17:30;;;;;;;20.85;10.60;;;;;;;;;;6255961;22;20026;-87
2021/01/11 04:20:07;;;;;;;16.83;9.60;;;5.50;99.90;;;;;;6204469;23;20024;-85
2021/01/11 04:22:41;;;;;;;19.48;9.20;;;;;;;;;;6258632;23;20020;-85
2021/01/11 04:25:19;;;;;;;10.35;5.35;;;;;;;;;;6184643;23;20030;-84
2021/01/11 04:28:05;;;;;;;20.73;7.97;;;5.40;99.90;;;;;;6228790;23;20460;-86
2021/01/11 04:30:36;;;;;;;13.93;7.35;;;;;;;;;;6198575;23;20016;-85
2021/01/11 04:33:08;;;;;;;19.35;9.23;;;;;;;;;;6197976;23;20023;-86
2021/01/11 04:35:37;;;;;;;15.13;7.43;;;5.60;99.90;;;;;;6149396;23;20027;-86
2021/01/11 04:38:09;;;;;;;13.77;7.60;;;;;;;;;;6174261;23;20017;-85
2021/01/11 04:40:37;;;;;;;19.55;8.95;;;;;;;;;;6199961;23;20031;-86
2021/01/11 04:43:13;;;;;;;22.05;10.00;;;;;;;;;;6171861;23;20017;-85
2021/01/11 04:45:50;;;;;;;20.20;8.73;;;;;;;;;;6150856;23;20024;-86
2021/01/11 04:48:21;;;;;;;12.13;6.88;;;;;;;;;;6229250;23;20023;-87
2021/01/11 04:50:58;;;;;;;24.27;6.65;;;;;;;;;;6231782;22;20030;-84
2021/01/11 04:53:52;;;;;;;21.77;7.40;;;5.70;99.90;;;;;;6260263;23;20016;-84
2021/01/11 04:56:21;;;;;;;13.65;7.28;;;;;;;;;;6232540;23;20517;-84
2021/01/11 04:58:58;;;;;;;13.68;6.50;;;5.60;99.90;;;;;;6207646;23;20026;-85
2021/01/11 05:01:35;;;;;;;12.88;6.00;;;;;;;;;;6207935;23;20348;-85
2021/01/11 05:04:07;;;;;;;15.45;7.63;;;;;;;;;;6232166;23;20026;-85
2021/01/11 05:06:35;;;;;;;13.93;7.32;;;;;;;;;;6233534;23;20016;-86
2021/01/11 05:09:08;;;;;;;11.45;5.85;;;;;;;;;;6230695;23;20023;-86
2021/01/11 05:11:43;;;;;;;15.45;7.20;;;;;;;;;;6234627;23;20030;-85
2021/01/11 05:14:19;;;;;;;10.10;5.60;;;;;;;;;;6234039;23;20023;-86
2021/01/11 05:17:22;;;;;;;13.75;5.53;;;5.90;99.90;;;;;;6197700;23;20025;-86
2021/01/11 05:20:07;;;;;;;16.40;7.63;;;;;;;;;;6209475;23;20020;-86
2021/01/11 05:22:48;;;;;;;13.15;8.13;;;;;;;;;;6235102;23;20020;-86
2021/01/11 05:25:23;;;;;;;13.57;7.13;;;5.90;99.90;;;;;;6208549;23;20026;-85
2021/01/11 05:31:20;;;;;;;13.70;5.88;;;;;;;;;;6257831;23;20016;-85
2021/01/11 05:33:59;;;;;;;11.98;6.07;;;;;;;;;;6228761;22;20026;-87
2021/01/11 05:36:27;;;;;;;12.95;5.22;;;;;;;;;;6205150;23;20031;-86
2021/01/11 05:39:25;;;;;;;8.50;4.00;;;5.90;99.90;;;;;;6232321;22;20022;-86
2021/01/11 05:41:56;;;;;;;8.32;3.92;;;;;;;;;;6235393;23;20012;-86
2021/01/11 05:44:37;;;;;;;14.20;5.45;;;;;;;;;;6236553;22;20028;-85
2021/01/11 05:47:07;;;;;;;12.85;5.72;;;;;;;;;;6228819;22;20016;-85
2021/01/11 05:49:36;;;;;;;11.02;5.13;;;;;;;;;;6231305;23;20013;-85
2021/01/11 05:52:16;;;;;;;10.55;5.18;;;6.00;99.90;;;;;;6228446;23;20016;-86
2021/01/11 05:55:32;;;;;;;10.80;4.35;;;6.00;99.90;;;;;;6208059;23;20016;-87
2021/01/11 05:58:03;;;;;;;9.60;4.65;;;6.00;99.90;;;;;;6165137;23;20025;-86
2021/01/11 06:00:37;;;;;;;7.55;4.63;;;6.00;99.90;;;;;;6244810;23;20441;-86
2021/01/11 06:03:11;;;;;;;12.25;5.53;;;6.10;99.90;;;;;;6185648;23;20020;-85
2021/01/11 06:05:49;;;;;;;5.18;3.17;;;;;;;;;;6255762;23;20016;-85
2021/01/11 06:08:29;;;;;;;7.38;4.55;;;;;;;;;;6229704;23;20016;-86
2021/01/11 06:11:29;;;;;;;6.07;3.92;;;6.10;99.90;;;;;;6211777;23;20020;-86
2021/01/11 06:14:00;;;;;;;6.40;3.90;;;;;;;;;;6232253;23;20020;-85
2021/01/11 06:16:31;;;;;;;7.00;4.82;;;6.10;99.90;;;;;;6256231;23;20026;-85
2021/01/11 06:19:06;;;;;;;9.50;5.55;;;;;;;;;;6228694;23;20028;-86
2021/01/11 06:21:52;;;;;;;6.22;4.07;;;6.10;99.90;;;;;;6257187;23;20020;-85
2021/01/11 06:24:25;;;;;;;8.10;4.70;;;;;;;;;;6257737;22;20024;-86
2021/01/11 06:26:53;;;;;;;10.13;4.47;;;;;;;;;;6182199;23;20479;-86
2021/01/11 06:29:36;;;;;;;14.50;7.30;;;;;;;;;;6209196;23;20028;-86
2021/01/11 06:32:21;;;;;;;7.35;3.78;;;6.20;99.90;;;;;;6247738;22;20024;-85
2021/01/11 06:34:51;;;;;;;6.78;4.07;;;;;;;;;;6199941;23;20017;-86
2021/01/11 06:37:32;;;;;;;11.93;5.22;;;;;;;;;;6222559;23;20024;-85
2021/01/11 06:40:04;;;;;;;5.97;4.50;;;;;;;;;;6224774;23;20474;-85
2021/01/11 06:42:38;;;;;;;8.65;4.18;;;;;;;;;;6225881;23;20020;-86
2021/01/11 06:45:12;;;;;;;9.85;4.63;;;5.90;99.90;;;;;;6223285;23;20029;-85
2021/01/11 06:47:41;;;;;;;9.52;5.35;;;5.80;99.90;;;;;;6198513;23;20021;-86
2021/01/11 06:50:27;;;;;;;7.68;4.22;;;;;;;;;;6199628;23;20016;-87
2021/01/11 06:53:08;;;;;;;7.70;3.42;;;;;;;;;;6196679;23;20468;-86
2021/01/11 06:56:10;;;;;;;9.70;5.10;;;5.70;99.90;;;;;;6220488;23;20661;-86
2021/01/11 06:58:44;;;;;;;4.22;3.40;;;;;;;;;;6189567;23;20039;-87
2021/01/11 07:01:31;;;;;;;4.65;3.47;;;5.60;99.90;;;;;;6187874;23;20020;-87
2021/01/11 07:04:00;;;;;;;7.40;4.63;;;;;;;;;;6189431;23;20021;-86
2021/01/11 07:06:35;;;;;;;7.22;4.32;;;5.90;99.90;;;;;;6166176;23;20025;-85
2021/01/11 07:09:22;;;;;;;6.07;4.07;;;5.70;99.90;;;;;;6168605;23;20031;-86
2021/01/11 07:11:53;;;;;;;3.10;2.53;;;;;;;;;;6142038;23;20025;-85
2021/01/11 07:14:56;;;;;;;10.05;4.15;;;;;;;;;;6165248;23;20017;-85
2021/01/11 07:17:42;;;;;;;5.60;3.15;;;5.90;99.90;;;;;;6167723;23;20021;-85
2021/01/11 07:20:15;;;;;;;6.00;3.65;;;6.00;99.90;;;;;;6192984;23;20020;-85
2021/01/11 07:22:50;;;;;;;8.38;2.58;;;6.00;99.90;;;;;;6141956;23;20017;-85
2021/01/11 07:25:24;;;;;;;6.00;3.20;;;6.10;99.90;;;;;;6142844;23;20035;-87
2021/01/11 07:28:00;;;;;;;7.97;3.65;;;;;;;;;;6166773;23;20016;-85
2021/01/11 07:30:35;;;;;;;6.80;3.58;;;6.20;99.90;;;;;;6167708;23;20013;-86
2021/01/11 07:33:12;;;;;;;2.55;2.33;;;6.10;99.90;;;;;;6160382;23;20022;-88
2021/01/11 07:35:43;;;;;;;3.38;2.55;;;;;;;;;;6096459;23;20320;-86
2021/01/11 07:38:13;;;;;;;2.55;2.25;;;;;;;;;;6092008;23;20022;-87
2021/01/11 07:40:40;;;;;;;4.05;3.50;;;;;;;;;;6114099;23;20013;-86
2021/01/11 07:43:24;;;;;;;6.13;2.92;;;6.30;99.90;;;;;;6162929;23;20018;-85
2021/01/11 07:46:04;;;;;;;3.65;2.90;;;6.30;99.90;;;;;;6095636;22;20014;-85
2021/01/11 07:48:34;;;;;;;7.10;2.65;;;;;;;;;;6197215;23;20459;-86
2021/01/11 07:51:24;;;;;;;7.05;2.88;;;6.30;99.90;;;;;;6198200;23;20337;-85
2021/01/11 07:54:08;;;;;;;5.00;2.58;;;;;;;;;;6173328;22;20035;-86
2021/01/11 07:56:39;;;;;;;5.00;3.33;;;;;;;;;;6200294;23;20016;-86
2021/01/11 07:59:12;;;;;;;2.08;1.73;;;;;;;;;;6228444;23;20486;-86
2021/01/11 08:01:42;;;;;;;3.72;2.17;;;;;;;;;;6223983;23;20020;-86
2021/01/11 08:04:15;;;;;;;5.22;1.85;;;;;;;;;;6251276;23;20026;-86
2021/01/11 08:06:51;;;;;;;5.40;2.30;;;;;;;;;;6232629;23;20020;-85
2021/01/11 08:09:26;;;;;;;4.63;2.30;;;6.50;99.90;;;;;;6261356;23;20016;-84
2021/01/11 08:12:16;;;;;;;6.47;2.50;;;;;;;;;;6228728;23;20329;-87
2021/01/11 08:14:51;;;;;;;4.18;2.03;;;;;;;;;;6227590;23;20031;-85
2021/01/11 08:17:25;;;;;;;2.67;2.03;;;;;;;;;;6230882;23;20016;-85
2021/01/11 08:20:08;;;;;;;3.80;2.00;;;6.30;99.90;;;;;;6228891;23;20031;-86
2021/01/11 08:22:41;;;;;;;2.70;2.13;;;;;;;;;;6199903;23;20022;-85
2021/01/11 08:25:17;;;;;;;4.05;2.20;;;;;;;;;;6221881;23;20027;-86
2021/01/11 08:28:18;;;;;;;2.78;2.15;;;6.50;99.90;;;;;;6227708;23;20027;-86
2021/01/11 08:31:03;;;;;;;4.40;2.50;;;;;;;;;;6230090;22;20024;-85
2021/01/11 08:34:06;;;;;;;5.25;2.78;;;6.40;99.90;;;;;;6213103;23;20021;-85
2021/01/11 08:36:46;;;;;;;5.10;2.15;;;;;;;;;;6200074;23;20017;-86
2021/01/11 08:39:20;;;;;;;12.20;3.50;;;6.60;99.90;;;;;;6223595;23;20791;-85
2021/01/11 08:41:54;;;;;;;2.92;1.85;;;;;;;;;;6213200;23;20024;-86
2021/01/11 08:44:33;;;;;;;5.30;3.03;;;6.50;99.90;;;;;;6217521;23;20020;-85
2021/01/11 08:47:14;;;;;;;8.40;2.78;;;6.50;99.90;;;;;;6223888;23;20020;-86
2021/01/11 08:49:56;;;;;;;4.40;2.45;;;;;;;;;;6219352;23;20321;-85
2021/01/11 08:52:35;;;;;;;3.58;2.13;;;6.50;99.90;;;;;;6222369;23;20355;-85
2021/01/11 08:55:14;;;;;;;2.85;2.30;;;;;;;;;;6219808;22;20028;-85
2021/01/11 08:58:02;;;;;;;7.15;2.85;;;;;;;;;;6189026;23;20028;-85
2021/01/11 09:00:32;;;;;;;;;;;6.60;99.90;;;;;;6163941;23;20025;-86
2021/01/11 09:03:01;;;;;;;3.88;2.22;;;;;;;;;;6161997;23;19924;-85
2021/01/11 09:05:30;;;;;;;7.68;2.97;;;;;;;;;;6183242;23;20024;-85
2021/01/11 09:08:15;;;;;;;9.80;3.03;;;;;;;;;;6184002;23;20025;-87
2021/01/11 09:10:46;;;;;;;4.28;2.80;;;6.70;99.90;;;;;;6186825;23;20021;-86
2021/01/11 09:13:20;;;;;;;6.80;2.50;;;6.80;99.90;;;;;;6186874;23;20036;-86
2021/01/11 09:16:15;;;;;;;3.22;2.20;;;6.70;99.90;;;;;;6175436;23;20025;-84
2021/01/11 09:18:43;;;;;;;27.48;3.30;;;;;;;;;;6159300;23;20024;-87
2021/01/11 09:21:24;;;;;;;4.72;2.60;;;6.80;99.90;;;;;;6158926;23;20337;-83
2021/01/11 09:23:52;;;;;;;11.38;2.60;;;;;;;;;;6186281;23;20374;-86
2021/01/11 09:26:22;;;;;;;3.50;2.17;;;6.80;99.90;;;;;;6182833;23;20028;-86
2021/01/11 09:28:59;;;;;;;3.80;2.80;;;;;;;;;;6189049;23;20017;-87
2021/01/11 09:31:27;;;;;;;4.00;2.22;;;;;;;;;;6184817;23;20020;-86
2021/01/11 09:34:03;;;;;;;7.78;2.35;;;6.90;99.90;;;;;;6186903;23;20071;-86
2021/01/11 09:36:36;;;;;;;5.63;2.15;;;7.00;99.90;;;;;;6168090;23;20028;-86
2021/01/11 09:39:06;;;;;;;3.67;2.60;;;6.90;99.90;;;;;;6187139;23;20027;-86
2021/01/11 09:41:45;;;;;;;11.07;3.25;;;7.10;99.90;;;;;;6194060;23;20025;-84
2021/01/11 09:44:14;;;;;;;3.45;2.33;;;;;;;;;;6191561;23;20027;-85
2021/01/11 09:46:57;;;;;;;10.98;3.13;;;7.20;99.90;;;;;;6136197;23;20029;-85
2021/01/11 09:49:27;;;;;;;14.18;3.45;;;7.20;99.90;;;;;;6182643;23;20021;-85
2021/01/11 09:51:59;;;;;;;7.10;2.75;;;;;;;;;;6158805;23;20444;-86
2021/01/11 09:54:27;;;;;;;3.50;3.20;;;;;;;;;;6133066;23;20031;-86
2021/01/11 09:56:59;;;;;;;4.78;2.30;;;7.20;99.90;;;;;;6173006;23;20032;-86
2021/01/11 09:59:28;;;;;;;7.68;2.85;;;;;;;;;;6214861;23;20012;-86
2021/01/11 10:02:00;;;;;;;6.35;2.53;;;;;;;;;;6193753;23;20028;-86
2021/01/11 10:04:31;;;;;;;;;;;7.30;99.90;;;;;;6183288;23;20020;-85
2021/01/11 10:06:59;;;;;;;6.85;2.63;;;;;;;;;;6143755;23;19916;-84
2021/01/11 10:09:29;;;;;;;3.70;2.90;;;7.20;99.90;;;;;;6216463;23;20027;-87
2021/01/11 10:11:59;;;;;;;2.40;2.20;;;7.40;99.90;;;;;;6167565;23;20021;-88
2021/01/11 10:14:51;;;;;;;6.88;2.85;;;;;;;;;;6222552;23;20023;-87
2021/01/11 10:17:41;;;;;;;13.02;3.03;;;;;;;;;;6241824;22;20050;-87
2021/01/11 10:20:23;;;;;;;9.80;2.78;;;7.60;99.90;;;;;;6227961;23;20374;-86
2021/01/11 10:22:52;;;;;;;;;;;7.60;99.90;;;;;;6166684;23;20039;-88
2021/01/11 10:25:31;;;;;;;7.43;2.97;;;7.70;99.90;;;;;;6196822;23;19930;-86
2021/01/11 10:28:12;;;;;;;7.20;2.05;;;;;;;;;;6195287;23;20026;-88
2021/01/11 10:30:54;;;;;;;9.38;2.28;;;;;;;;;;6240203;23;20012;-87
2021/01/11 10:33:23;;;;;;;3.83;1.98;;;;;;;;;;6207953;23;20017;-87
2021/01/11 10:35:55;;;;;;;4.18;2.22;;;8.00;99.90;;;;;;6222870;23;20031;-87
2021/01/11 10:38:32;;;;;;;4.25;2.13;;;;;;;;;;6226033;23;20023;-86
2021/01/11 10:41:02;;;;;;;10.77;2.83;;;;;;;;;;6179920;23;20028;-86
2021/01/11 10:43:39;;;;;;;4.22;3.10;;;;;;;;;;6221645;23;20023;-87
2021/01/11 10:46:19;;;;;;;4.32;2.45;;;;;;;;;;6256091;23;20030;-86
2021/01/11 10:49:05;;;;;;;3.63;1.70;;;;;;;;;;6224111;23;20016;-86
2021/01/11 10:51:33;;;;;;;6.00;2.75;;;;;;;;;;6228106;23;20026;-86
2021/01/11 10:54:04;;;;;;;3.47;2.08;;;;;;;;;;6244726;23;20031;-87
2021/01/11 10:56:36;;;;;;;6.15;2.00;;;;;;;;;;6226526;22;20009;-88
2021/01/11 10:59:06;;;;;;;8.40;3.72;;;;;;;;;;6222966;23;20133;-90
2021/01/11 11:01:43;;;;;;;11.25;2.75;;;;;;;;;;6231258;23;20020;-88
2021/01/11 11:04:23;;;;;;;12.18;3.08;;;;;;;;;;6206263;23;20022;-88
2021/01/11 11:07:15;;;;;;;6.95;2.55;;;;;;;;;;6230389;23;20016;-87
2021/01/11 11:09:49;;;;;;;6.25;3.30;;;;;;;;;;6225822;23;20026;-88
2021/01/11 11:12:22;;;;;;;3.30;2.10;;;;;;;;;;6227464;23;20020;-88
2021/01/11 11:15:00;;;;;;;19.98;2.60;;;;;;;;;;6204957;23;20020;-88
2021/01/11 11:17:48;;;;;;;10.13;2.50;;;;;;;;;;6245705;23;20305;-87
2021/01/11 11:20:18;;;;;;;13.90;3.17;;;;;;;;;;6202343;23;20024;-87
2021/01/11 11:22:53;;;;;;;9.68;3.45;;;;;;;;;;6225080;23;20035;-87
2021/01/11 11:25:24;;;;;;;2.42;2.03;;;;;;;;;;6222873;23;20012;-87
2021/01/11 11:27:56;;;;;;;7.32;2.60;;;;;;;;;;6199099;23;20479;-87
2021/01/11 11:30:28;;;;;;;8.13;2.20;;;;;;;;;;6228447;23;20020;-88
2021/01/11 11:33:00;;;;;;;10.80;4.80;;;;;;;;;;6181609;23;20017;-87
2021/01/11 11:35:31;;;;;;;8.13;2.77;;;;;;;;;;6187387;23;20016;-84
2021/01/11 11:37:59;;;;;;;4.55;2.40;;;;;;;;;;6218510;23;20021;-85
2021/01/11 11:40:27;;;;;;;6.05;2.50;;;;;;;;;;6166582;23;20516;-87
2021/01/11 11:43:20;;;;;;;4.10;2.17;;;8.60;99.90;;;;;;6216587;23;20031;-84
2021/01/11 11:45:51;;;;;;;8.95;2.00;;;;;;;;;;6188887;23;20156;-87
2021/01/11 11:48:27;;;;;;;4.03;2.10;;;;;;;;;;6219363;23;20024;-85
2021/01/11 11:51:07;;;;;;;11.77;2.80;;;;;;;;;;6215185;23;20811;-83
2021/01/11 11:53:57;;;;;;;5.03;2.58;;;8.60;99.90;;;;;;6239923;22;20028;-84
2021/01/11 11:56:27;;;;;;;7.07;2.20;;;;;;;;;;6248286;23;20024;-83
2021/01/11 11:59:06;;;;;;;9.02;2.22;;;8.50;99.90;;;;;;6255955;22;20443;-84
2021/01/11 12:01:42;;;;;;;9.30;2.63;;;;;;;;;;6225330;23;20362;-85
2021/01/11 12:04:23;;;;;;;5.38;2.13;;;8.70;99.90;;;;;;6225791;23;20024;-84
2021/01/11 12:06:56;;;;;;;7.20;2.42;;;;;;;;;;6249552;22;20016;-85
2021/01/11 12:12:51;;;;;;;5.47;2.38;;;;;;;;;;6252878;23;20362;-85
2021/01/11 12:15:21;;;;;;;3.97;1.88;;;;;;;;;;6248705;23;20012;-84
2021/01/11 12:17:54;;;;;;;5.85;1.73;;;;;;;;;;6250471;22;20483;-83
2021/01/11 12:20:23;;;;;;;19.40;4.47;;;;;;;;;;6250877;22;20020;-84
2021/01/11 12:22:51;;;;;;;5.70;2.15;;;;;;;;;;6225616;23;20016;-84
2021/01/11 12:25:19;;;;;;;8.52;1.77;;;;;;;;;;6198762;23;20024;-85
2021/01/11 12:27:46;;;;;;;11.98;2.47;;;;;;;;;;6205482;23;20030;-85
2021/01/11 12:30:16;;;;;;;4.53;2.15;;;;;;;;;;6201278;23;20371;-85
2021/01/11 12:32:47;;;;;;;6.28;2.40;;;;;;;;;;6192403;22;20031;-84
2021/01/11 12:35:16;;;;;;;9.15;2.83;;;;;;;;;;6254367;23;20017;-84
2021/01/11 12:37:44;;;;;;;6.97;1.95;;;;;;;;;;6256977;22;20028;-84
2021/01/11 12:40:15;;;;;;;5.45;1.75;;;;;;;;;;6282139;22;20020;-84
2021/01/11 12:42:55;;;;;;;4.90;3.05;;;8.70;99.90;;;;;;6261791;22;20018;-86
2021/01/11 12:45:31;;;;;;;8.95;2.60;;;;;;;;;;6234108;23;20318;-85
2021/01/11 12:48:12;;;;;;;11.93;2.78;;;8.60;99.90;;;;;;6249287;23;20486;-84
2021/01/11 12:50:43;;;;;;;3.22;1.95;;;;;;;;;;6153002;23;20020;-85
2021/01/11 12:53:12;;;;;;;4.00;2.75;;;;;;;;;;6253735;22;20030;-84
2021/01/11 12:55:48;;;;;;;6.25;2.20;;;8.70;99.90;;;;;;6251475;23;20038;-84
2021/01/11 12:58:53;;;;;;;1.40;1.30;;;8.90;99.90;;;;;;6257475;23;20028;-85
2021/01/11 13:01:25;;;;;;;4.88;2.42;;;8.80;99.90;;;;;;6251577;23;20015;-85
2021/01/11 13:04:03;;;;;;;9.55;2.20;;;8.70;99.90;;;;;;6230286;23;20020;-84
2021/01/11 13:06:36;;;;;;;4.38;1.55;;;8.60;99.90;;;;;;6222600;23;20021;-83
2021/01/11 13:09:08;;;;;;;11.90;3.22;;;8.90;99.90;;;;;;6253102;22;20020;-84
2021/01/11 13:11:51;;;;;;;1.60;1.50;;;;;;;;;;6227521;23;20012;-82
2021/01/11 13:14:26;;;;;;;5.18;1.83;;;;;;;;;;6246852;23;20039;-84
2021/01/11 13:16:58;;;;;;;5.13;1.48;;;;;;;;;;6248666;22;20026;-84
2021/01/11 13:19:27;;;;;;;3.15;1.30;;;;;;;;;;6243403;22;20028;-83
2021/01/11 13:21:57;;;;;;;2.25;1.60;;;;;;;;;;6250389;23;20332;-84
2021/01/11 13:24:32;;;;;;;1.63;1.52;;;;;;;;;;6248861;23;20344;-85
2021/01/11 13:27:02;;;;;;;3.10;1.55;;;;;;;;;;6247844;22;20359;-84
2021/01/11 13:29:39;;;;;;;1.40;1.25;;;;;;;;;;6248536;22;20331;-84
2021/01/11 13:32:09;;;;;;;1.85;1.60;;;;;;;;;;6243925;22;20017;-85
2021/01/11 13:34:39;;;;;;;2.78;1.58;;;;;;;;;;6215009;23;20025;-84
2021/01/11 13:37:08;;;;;;;5.68;1.48;;;;;;;;;;6214030;23;20501;-84
2021/01/11 13:39:39;;;;;;;2.40;1.60;;;;;;;;;;6244968;23;20462;-84
2021/01/11 13:42:14;;;;;;;3.47;1.73;;;;;;;;;;6174176;23;20016;-84
2021/01/11 13:44:45;;;;;;;6.50;2.85;;;;;;;;;;6218944;23;20026;-84
2021/01/11 13:47:19;;;;;;;3.85;2.55;;;;;;;;;;6211080;23;20027;-84
2021/01/11 13:49:47;;;;;;;;;;;9.10;99.90;;;;;;6248859;23;20493;-84
2021/01/11 13:52:35;;;;;;;1.75;1.42;;;;;;;;;;6217709;23;19922;-84
2021/01/11 13:55:06;;;;;;;8.25;2.03;;;;;;;;;;6244400;23;20318;-84
2021/01/11 13:57:35;;;;;;;2.42;1.40;;;;;;;;;;6224175;23;20021;-85
2021/01/11 14:00:07;;;;;;;2.47;1.17;;;9.10;99.90;;;;;;6219742;23;20031;-84
2021/01/11 14:02:35;;;;;;;6.35;1.90;;;;;;;;;;6220301;23;20342;-84
2021/01/11 14:05:07;;;;;;;2.30;1.50;;;;;;;;;;6218968;23;20020;-83
2021/01/11 14:07:36;;;;;;;4.25;1.17;;;;;;;;;;6213536;23;20013;-84
2021/01/11 14:10:07;;;;;;;6.60;1.50;;;;;;;;;;6193516;23;20027;-84
2021/01/11 14:12:37;;;;;;;1.85;1.30;;;;;;;;;;6221253;23;20023;-84
2021/01/11 14:15:08;;;;;;;5.18;1.70;;;;;;;;;;6222686;23;20038;-83
2021/01/11 14:17:49;;;;;;;2.53;1.30;;;9.20;99.90;;;;;;6195520;23;20020;-84
2021/01/11 14:20:24;;;;;;;3.67;1.80;;;;;;;;;;6244849;23;20017;-84
2021/01/11 14:26:05;;;;;;;3.50;1.20;;;;;;;;;;6280402;22;20028;-84
2021/01/11 14:28:38;;;;;;;3.25;2.10;;;;;;;;;;6258130;22;20026;-83
2021/01/11 14:31:07;;;;;;;4.03;1.85;;;;;;;;;;6230845;22;20022;-82
2021/01/11 14:33:43;;;;;;;5.78;1.40;;;;;;;;;;6181405;22;20024;-83
2021/01/11 14:36:17;;;;;;;4.00;1.40;;;;;;;;;;6225367;23;20053;-83
2021/01/11 14:38:49;;;;;;;;;;;9.20;99.90;;;;;;6226392;23;20030;-83
2021/01/11 14:41:27;;;;;;;5.10;1.65;;;;;;;;;;6232643;23;19919;-83
2021/01/11 14:43:57;;;;;;;1.25;0.98;;;9.10;99.90;;;;;;6254466;22;20522;-83
2021/01/11 14:46:34;;;;;;;3.13;1.90;;;;;;;;;;6250825;22;20027;31
2021/01/11 14:49:06;;;;;;;2.55;1.75;;;;;;;;;;6210835;23;20024;-81
2021/01/11 14:51:40;;;;;;;2.10;1.63;;;;;;;;;;6228346;22;20024;-83
2021/01/11 14:54:24;;;;;;;4.82;1.90;;;;;;;;;;6173918;23;20343;-83
2021/01/11 14:57:13;;;;;;;4.10;1.60;;;;;;;;;;6253107;23;20030;-84
2021/01/11 15:00:01;;;;;;;5.05;1.60;;;;;;;;;;6253421;23;20031;-83
2021/01/11 15:02:43;;;;;;;1.63;1.50;;;;;;;;;;6250333;23;20027;-84
2021/01/11 15:05:13;;;;;;;3.53;1.60;;;;;;;;;;6248937;23;20704;-84